createdAt,value
2022-11-08T00:00:14.652Z,100921.66
2022-11-08T00:02:41.785Z,100912.84
2022-11-08T00:05:27.445Z,100911.78
2022-11-08T00:08:12.680Z,100916.91
2022-11-08T00:10:58.521Z,100910.69
2022-11-08T00:13:44.263Z,100917.72
2022-11-08T00:16:12.229Z,100915.16
2022-11-08T00:18:39.229Z,100917.06
2022-11-08T00:21:06.412Z,100917.19
2022-11-08T00:23:33.340Z,100912.97
2022-11-08T00:26:00.449Z,100911.31
2022-11-08T00:28:27.492Z,100913.19
2022-11-08T00:30:54.430Z,100912.28
2022-11-08T00:33:21.506Z,100909.56
2022-11-08T00:35:48.495Z,100906.78
2022-11-08T00:38:15.654Z,100910.16
2022-11-08T00:40:42.974Z,100909.13
2022-11-08T00:43:10.986Z,100907.19
2022-11-08T00:45:38.030Z,100897.44
2022-11-08T00:48:11.390Z,100911.41
2022-11-08T00:50:40.046Z,100905.38
2022-11-08T00:53:07.341Z,100901.97
2022-11-08T00:55:34.307Z,100902.19
2022-11-08T00:58:06.766Z,100905.94
2022-11-08T01:00:33.958Z,100903.59
2022-11-08T01:03:19.439Z,100896.75
2022-11-08T01:05:52.629Z,100899.59
2022-11-08T01:08:23.225Z,100898.00
2022-11-08T01:10:52.206Z,100889.31
2022-11-08T01:13:20.676Z,100888.50
2022-11-08T01:15:48.156Z,100895.59
2022-11-08T01:18:17.069Z,100891.28
2022-11-08T01:20:47.056Z,100893.06
2022-11-08T01:23:15.096Z,100887.03
2022-11-08T01:25:46.434Z,100887.97
2022-11-08T01:28:13.884Z,100882.69
2022-11-08T01:30:44.522Z,100884.59
2022-11-08T01:33:12.815Z,100889.06
2022-11-08T01:35:40.898Z,100894.41
2022-11-08T01:38:08.086Z,100894.41
2022-11-08T01:40:47.076Z,100883.97
2022-11-08T01:43:26.242Z,100881.41
2022-11-08T01:46:16.059Z,100877.06
2022-11-08T01:48:57.838Z,100872.72
2022-11-08T01:51:32.869Z,100874.50
2022-11-08T01:54:08.179Z,100878.97
2022-11-08T01:56:39.967Z,100866.81
2022-11-08T01:59:10.441Z,100866.81
2022-11-08T02:01:37.607Z,100862.50
2022-11-08T02:04:08.464Z,100852.03
2022-11-08T02:06:39.113Z,100846.91
2022-11-08T02:09:13.221Z,100843.44
2022-11-08T02:11:41.830Z,100851.41
2022-11-08T02:14:08.922Z,100840.03
2022-11-08T02:16:36.066Z,100840.09
2022-11-08T02:19:07.823Z,100831.38
2022-11-08T02:21:49.612Z,100836.69
2022-11-08T02:24:17.512Z,100827.00
2022-11-08T02:26:47.272Z,100815.56
2022-11-08T02:29:35.690Z,100805.03
2022-11-08T02:32:05.010Z,100804.97
2022-11-08T02:34:44.090Z,100802.28
2022-11-08T02:37:18.555Z,100781.16
2022-11-08T02:39:46.558Z,100797.69
2022-11-08T02:42:15.858Z,100792.34
2022-11-08T02:44:42.860Z,100788.75
2022-11-08T02:47:10.013Z,100784.25
2022-11-08T02:49:37.301Z,100784.25
2022-11-08T02:52:05.230Z,100784.25
2022-11-08T02:54:32.614Z,100784.19
2022-11-08T02:56:59.660Z,100776.25
2022-11-08T02:59:26.646Z,100766.56
2022-11-08T03:01:53.810Z,100763.09
2022-11-08T03:04:21.017Z,100771.84
2022-11-08T03:06:49.046Z,100768.28
2022-11-08T03:09:16.101Z,100766.63
2022-11-08T03:11:44.195Z,100761.34
2022-11-08T03:14:11.178Z,100756.09
2022-11-08T03:16:38.146Z,100753.44
2022-11-08T03:19:05.173Z,100750.81
2022-11-08T03:21:36.650Z,100746.38
2022-11-08T03:24:05.364Z,100738.41
2022-11-08T03:26:32.896Z,100740.06
2022-11-08T03:28:59.908Z,100731.31
2022-11-08T03:31:27.570Z,100734.78
2022-11-08T03:33:54.529Z,100731.31
2022-11-08T03:36:21.611Z,100728.63
2022-11-08T03:38:48.683Z,100711.97
2022-11-08T03:41:15.735Z,100704.91
2022-11-08T03:43:42.713Z,100714.53
2022-11-08T03:46:09.763Z,100711.91
2022-11-08T03:48:36.819Z,100704.09
2022-11-08T03:51:04.038Z,100706.84
2022-11-08T03:53:31.106Z,100700.69
2022-11-08T03:56:02.020Z,100698.19
2022-11-08T03:58:31.044Z,100700.00
2022-11-08T04:01:05.859Z,100694.81
2022-11-08T04:03:33.134Z,100686.13
2022-11-08T04:06:02.433Z,100679.19
2022-11-08T04:08:30.661Z,100667.84
2022-11-08T04:11:21.658Z,100667.84
2022-11-08T04:14:07.662Z,100654.72
2022-11-08T04:16:34.800Z,100655.59
2022-11-08T04:19:20.421Z,100646.84
2022-11-08T04:21:51.021Z,100651.13
2022-11-08T04:24:18.262Z,100638.81
2022-11-08T04:26:45.711Z,100647.53
2022-11-08T04:29:13.386Z,100634.41
2022-11-08T04:31:41.270Z,100632.72
2022-11-08T04:34:08.364Z,100635.41
2022-11-08T04:36:35.752Z,100635.41
2022-11-08T04:39:03.436Z,100616.00
2022-11-08T04:41:30.543Z,100614.25
2022-11-08T04:43:57.747Z,100614.19
2022-11-08T04:46:28.287Z,100613.34
2022-11-08T04:48:59.753Z,100613.44
2022-11-08T04:51:30.474Z,100614.25
2022-11-08T04:54:00.629Z,100614.28
2022-11-08T04:56:30.557Z,100613.44
2022-11-08T04:59:00.158Z,100608.06
2022-11-08T05:01:30.931Z,100603.59
2022-11-08T05:03:58.432Z,100598.38
2022-11-08T05:06:31.771Z,100599.28
2022-11-08T05:09:00.589Z,100592.28
2022-11-08T05:11:29.964Z,100589.66
2022-11-08T05:13:57.616Z,100581.88
2022-11-08T05:16:29.295Z,100578.38
2022-11-08T05:18:57.700Z,100576.66
2022-11-08T05:21:44.280Z,100574.00
2022-11-08T05:24:15.989Z,100562.63
2022-11-08T05:26:46.332Z,100563.38
2022-11-08T05:29:15.758Z,100549.41
2022-11-08T05:31:42.790Z,100541.50
2022-11-08T05:34:10.838Z,100538.84
2022-11-08T05:36:37.988Z,100533.50
2022-11-08T05:39:05.433Z,100536.94
2022-11-08T05:41:32.366Z,100543.97
2022-11-08T05:43:59.503Z,100532.63
2022-11-08T05:46:26.557Z,100544.88
2022-11-08T05:48:54.163Z,100534.31
2022-11-08T05:51:21.551Z,100531.72
2022-11-08T05:53:49.054Z,100538.56
2022-11-08T05:56:18.057Z,100529.44
2022-11-08T05:58:45.935Z,100515.88
2022-11-08T06:01:19.926Z,100511.91
2022-11-08T06:03:48.128Z,100510.69
2022-11-08T06:06:19.675Z,100517.66
2022-11-08T06:11:35.851Z,100513.28
2022-11-08T06:14:03.005Z,100527.31
2022-11-08T06:16:30.059Z,100532.66
2022-11-08T06:18:57.427Z,100523.09
2022-11-08T06:21:26.311Z,100525.75
2022-11-08T06:23:54.692Z,100522.63
2022-11-08T06:26:24.049Z,100524.69
2022-11-08T06:28:51.503Z,100520.63
2022-11-08T06:31:18.721Z,100529.59
2022-11-08T06:33:46.503Z,100528.94
2022-11-08T06:36:14.615Z,100529.16
2022-11-08T06:38:41.750Z,100531.94
2022-11-08T06:41:19.221Z,100532.91
2022-11-08T06:43:46.355Z,100530.34
2022-11-08T06:46:15.725Z,100514.56
2022-11-08T06:48:42.752Z,100525.91
2022-11-08T06:51:09.810Z,100525.84
2022-11-08T06:53:36.931Z,100529.31
2022-11-08T06:56:04.112Z,100517.84
2022-11-08T06:58:32.214Z,100527.34
2022-11-08T07:01:04.771Z,100529.09
2022-11-08T07:03:33.026Z,100523.72
2022-11-08T07:06:04.430Z,100521.81
2022-11-08T07:08:33.102Z,100527.81
2022-11-08T07:11:00.164Z,100534.69
2022-11-08T07:13:27.333Z,100533.72
2022-11-08T07:16:04.690Z,100516.91
2022-11-08T07:18:31.927Z,100523.88
2022-11-08T07:21:01.480Z,100528.03
2022-11-08T07:23:29.447Z,100520.91
2022-11-08T07:25:56.647Z,100523.38
2022-11-08T07:28:23.592Z,100522.31
2022-11-08T07:30:50.629Z,100520.31
2022-11-08T07:33:18.270Z,100529.75
2022-11-08T07:35:47.458Z,100522.59
2022-11-08T07:38:15.193Z,100522.34
2022-11-08T07:40:42.502Z,100520.44
2022-11-08T07:43:12.227Z,100527.19
2022-11-08T07:45:41.590Z,100515.56
2022-11-08T07:48:13.459Z,100528.50
2022-11-08T07:50:42.759Z,100530.97
2022-11-08T07:53:11.032Z,100527.22
2022-11-08T07:55:40.315Z,100522.59
2022-11-08T07:58:10.582Z,100528.44
2022-11-08T08:00:40.525Z,100519.31
2022-11-08T08:03:12.216Z,100511.94
2022-11-08T08:05:43.655Z,100515.13
2022-11-08T08:08:13.043Z,100524.38
2022-11-08T08:10:41.107Z,100505.53
2022-11-08T08:13:08.502Z,100514.09
2022-11-08T08:15:35.854Z,100508.50
2022-11-08T08:18:06.110Z,100503.03
2022-11-08T08:20:34.717Z,100508.16
2022-11-08T08:23:01.871Z,100504.47
2022-11-08T08:25:31.456Z,100510.41
2022-11-08T08:28:02.821Z,100506.72
2022-11-08T08:30:32.694Z,100504.84
2022-11-08T08:33:31.909Z,100501.16
2022-11-08T08:36:02.261Z,100507.28
2022-11-08T08:38:31.465Z,100514.25
2022-11-08T08:40:59.344Z,100514.06
2022-11-08T08:43:29.877Z,100524.44
2022-11-08T08:46:05.560Z,100527.69
2022-11-08T08:48:33.571Z,100516.03
2022-11-08T08:51:00.621Z,100522.91
2022-11-08T08:53:27.763Z,100528.06
2022-11-08T08:55:54.813Z,100531.28
2022-11-08T08:58:22.903Z,100533.69
2022-11-08T09:03:40.092Z,100523.50
2022-11-08T09:06:07.870Z,100525.84
2022-11-08T09:08:34.944Z,100523.66
2022-11-08T09:11:03.700Z,100516.44
2022-11-08T09:13:32.359Z,100518.88
2022-11-08T09:16:02.683Z,100514.38
2022-11-08T09:18:31.162Z,100522.09
2022-11-08T09:20:59.287Z,100514.00
2022-11-08T09:23:26.976Z,100521.03
2022-11-08T09:26:05.266Z,100511.16
2022-11-08T09:28:35.085Z,100508.44
2022-11-08T09:31:06.984Z,100502.22
2022-11-08T09:33:37.027Z,100501.09
2022-11-08T09:36:05.830Z,100486.69
2022-11-08T09:38:33.433Z,100476.66
2022-11-08T09:41:15.604Z,100473.69
2022-11-08T09:44:19.869Z,100497.22
2022-11-08T09:46:53.513Z,100495.06
2022-11-08T09:49:32.405Z,100486.97
2022-11-08T09:52:02.987Z,100496.34
2022-11-08T09:54:40.150Z,100485.53
2022-11-08T09:57:26.451Z,100482.47
2022-11-08T10:00:05.963Z,100478.59
2022-11-08T10:02:36.610Z,100484.59
2022-11-08T10:05:09.534Z,100482.50
2022-11-08T10:07:49.460Z,100475.25
2022-11-08T10:11:01.775Z,100483.53
2022-11-08T10:13:31.415Z,100486.72
2022-11-08T10:16:27.278Z,100492.50
2022-11-08T10:19:15.835Z,100490.44
2022-11-08T10:22:09.902Z,100496.06
2022-11-08T10:25:01.942Z,100488.47
2022-11-08T10:27:41.751Z,100503.72
2022-11-08T10:30:31.327Z,100500.41
2022-11-08T10:32:58.561Z,100499.72
2022-11-08T10:35:34.760Z,100493.59
2022-11-08T10:38:10.246Z,100491.94
2022-11-08T10:40:50.867Z,100499.66
2022-11-08T10:43:35.347Z,100499.66
2022-11-08T10:46:02.461Z,100505.22
2022-11-08T10:48:37.162Z,100506.19
2022-11-08T10:51:04.434Z,100514.84
2022-11-08T10:53:32.835Z,100512.72
2022-11-08T10:56:02.528Z,100495.31
2022-11-08T10:58:39.351Z,100499.19
2022-11-08T11:01:20.411Z,100492.47
2022-11-08T11:03:50.813Z,100489.53
2022-11-08T11:06:30.613Z,100495.53
2022-11-08T11:09:02.201Z,100493.06
2022-11-08T11:11:32.183Z,100499.22
2022-11-08T11:14:22.426Z,100496.75
2022-11-08T11:17:15.644Z,100498.91
2022-11-08T11:19:57.340Z,100506.13
2022-11-08T11:22:35.467Z,100507.31
2022-11-08T11:25:16.412Z,100505.59
2022-11-08T11:27:48.365Z,100500.38
2022-11-08T11:30:30.399Z,100498.22
2022-11-08T11:33:13.815Z,100487.50
2022-11-08T11:35:54.398Z,100493.50
2022-11-08T11:38:35.786Z,100496.75
2022-11-08T11:41:12.710Z,100491.09
2022-11-08T11:44:23.422Z,100488.06
2022-11-08T11:47:42.665Z,100487.41
2022-11-08T11:50:30.936Z,100465.59
2022-11-08T11:53:01.065Z,100457.75
2022-11-08T11:56:08.242Z,100448.19
2022-11-08T11:58:38.228Z,100437.06
2022-11-08T12:01:44.087Z,100432.22
2022-11-08T12:04:42.034Z,100426.84
2022-11-08T12:07:22.337Z,100442.53
2022-11-08T12:10:16.590Z,100441.06
2022-11-08T12:13:12.799Z,100420.16
2022-11-08T12:16:20.302Z,100431.50
2022-11-08T12:19:19.457Z,100422.94
2022-11-08T12:22:09.922Z,100430.72
2022-11-08T12:25:09.230Z,100418.28
2022-11-08T12:28:17.616Z,100420.28
2022-11-08T12:31:31.966Z,100422.16
2022-11-08T12:34:36.415Z,100416.63
2022-11-08T12:37:24.969Z,100425.97
2022-11-08T12:40:04.661Z,100421.31
2022-11-08T12:42:50.054Z,100412.94
2022-11-08T12:45:43.994Z,100432.91
2022-11-08T12:48:47.226Z,100435.84
2022-11-08T12:52:03.969Z,100439.66
2022-11-08T12:54:48.113Z,100431.19
2022-11-08T12:57:21.193Z,100439.81
2022-11-08T13:00:06.553Z,100436.69
2022-11-08T13:02:38.906Z,100424.03
2022-11-08T13:05:26.300Z,100428.88
2022-11-08T13:08:08.706Z,100418.41
2022-11-08T13:10:59.388Z,100397.81
2022-11-08T13:13:51.569Z,100398.56
2022-11-08T13:16:25.915Z,100397.75
2022-11-08T13:18:57.755Z,100393.25
2022-11-08T13:21:27.758Z,100398.47
2022-11-08T13:24:30.770Z,100399.34
2022-11-08T13:27:30.321Z,100401.84
2022-11-08T13:30:05.279Z,100405.81
2022-11-08T13:32:56.498Z,100397.56
2022-11-08T13:35:47.332Z,100397.56
2022-11-08T13:38:55.867Z,100399.16
2022-11-08T13:41:25.881Z,100394.13
2022-11-08T13:43:58.455Z,100389.88
2022-11-08T13:46:29.693Z,100391.84
2022-11-08T13:49:20.411Z,100394.59
2022-11-08T13:51:47.607Z,100392.81
2022-11-08T13:54:23.464Z,100391.66
2022-11-08T13:56:59.403Z,100392.25
2022-11-08T13:59:32.628Z,100401.53
2022-11-08T14:02:05.707Z,100396.72
2022-11-08T14:04:41.173Z,100393.75
2022-11-08T14:08:21.362Z,100401.44
2022-11-08T14:11:09.571Z,100394.41
2022-11-08T14:14:06.151Z,100400.50
2022-11-08T14:17:02.635Z,100395.47
2022-11-08T14:19:36.094Z,100398.31
2022-11-08T14:22:03.494Z,100401.25
2022-11-08T14:24:37.206Z,100403.16
2022-11-08T14:27:04.292Z,100404.13
2022-11-08T14:29:31.383Z,100404.19
2022-11-08T14:32:24.571Z,100401.66
2022-11-08T14:34:51.577Z,100401.81
2022-11-08T14:37:28.404Z,100391.47
2022-11-08T14:39:55.539Z,100388.31
2022-11-08T14:42:26.313Z,100394.13
2022-11-08T14:44:57.290Z,100391.94
2022-11-08T14:47:30.431Z,100393.31
2022-11-08T14:49:59.330Z,100388.53
2022-11-08T14:52:33.111Z,100392.56
2022-11-08T14:55:09.333Z,100391.41
2022-11-08T14:57:40.022Z,100405.16
2022-11-08T15:00:13.602Z,100394.03
2022-11-08T15:02:44.987Z,100391.66
2022-11-08T15:05:44.966Z,100399.00
2022-11-08T15:08:31.972Z,100396.53
2022-11-08T15:11:03.878Z,100394.91
2022-11-08T15:13:46.186Z,100393.53
2022-11-08T15:16:13.513Z,100400.72
2022-11-08T15:18:43.715Z,100394.69
2022-11-08T15:21:16.386Z,100399.22
2022-11-08T15:23:46.399Z,100402.03
2022-11-08T15:26:32.915Z,100389.03
2022-11-08T15:29:12.877Z,100401.53
2022-11-08T15:31:55.552Z,100391.09
2022-11-08T15:34:40.598Z,100383.38
2022-11-08T15:37:42.667Z,100382.88
2022-11-08T15:40:27.220Z,100388.44
2022-11-08T15:42:54.699Z,100386.97
2022-11-08T15:45:33.059Z,100381.94
2022-11-08T15:48:10.789Z,100382.25
2022-11-08T15:50:39.875Z,100375.53
2022-11-08T15:53:06.976Z,100374.94
2022-11-08T15:55:49.009Z,100377.78
2022-11-08T15:58:39.978Z,100377.09
2022-11-08T16:01:07.616Z,100371.25
2022-11-08T16:03:34.782Z,100367.91
2022-11-08T16:06:01.819Z,100367.28
2022-11-08T16:08:29.021Z,100366.84
2022-11-08T16:11:01.254Z,100360.06
2022-11-08T16:13:33.017Z,100363.06
2022-11-08T16:16:03.485Z,100352.78
2022-11-08T16:18:34.165Z,100346.69
2022-11-08T16:21:01.863Z,100353.78
2022-11-08T16:23:29.834Z,100358.25
2022-11-08T16:26:03.302Z,100355.75
2022-11-08T16:28:36.770Z,100363.00
2022-11-08T16:31:16.479Z,100352.81
2022-11-08T16:33:46.047Z,100356.72
2022-11-08T16:36:28.033Z,100363.19
2022-11-08T16:39:02.129Z,100362.66
2022-11-08T16:41:29.475Z,100369.13
2022-11-08T16:44:06.146Z,100374.66
2022-11-08T16:46:35.763Z,100365.13
2022-11-08T16:49:08.531Z,100362.66
2022-11-08T16:51:39.442Z,100370.88
2022-11-08T16:54:19.579Z,100364.06
2022-11-08T16:56:46.826Z,100369.63
2022-11-08T16:59:14.865Z,100379.56
2022-11-08T17:01:44.216Z,100381.53
2022-11-08T17:04:11.573Z,100391.47
2022-11-08T17:06:38.720Z,100386.41
2022-11-08T17:09:05.954Z,100393.63
2022-11-08T17:11:32.989Z,100384.19
2022-11-08T17:14:00.036Z,100378.19
2022-11-08T17:16:27.281Z,100374.84
2022-11-08T17:18:54.398Z,100372.25
2022-11-08T17:24:10.298Z,100376.06
2022-11-08T17:26:37.425Z,100382.34
2022-11-08T17:29:17.453Z,100381.56
2022-11-08T17:31:44.498Z,100371.16
2022-11-08T17:34:11.556Z,100373.09
2022-11-08T17:36:38.534Z,100374.84
2022-11-08T17:39:06.110Z,100381.06
2022-11-08T17:41:33.476Z,100384.66
2022-11-08T17:44:00.502Z,100374.16
2022-11-08T17:46:27.563Z,100375.91
2022-11-08T17:48:54.598Z,100381.28
2022-11-08T17:51:21.738Z,100371.63
2022-11-08T17:53:49.707Z,100365.56
2022-11-08T17:56:16.793Z,100365.56
2022-11-08T17:58:43.806Z,100371.81
2022-11-08T18:01:10.837Z,100376.22
2022-11-08T18:03:37.926Z,100368.19
2022-11-08T18:06:12.071Z,100370.94
2022-11-08T18:08:41.587Z,100374.38
2022-11-08T18:11:09.394Z,100376.09
2022-11-08T18:13:36.593Z,100376.13
2022-11-08T18:16:14.581Z,100382.22
2022-11-08T18:18:42.950Z,100371.81
2022-11-08T18:21:10.975Z,100378.06
2022-11-08T18:23:47.758Z,100370.94
2022-11-08T18:26:16.986Z,100373.50
2022-11-08T18:28:45.291Z,100369.16
2022-11-08T18:31:19.344Z,100368.19
2022-11-08T18:33:47.802Z,100368.28
2022-11-08T18:36:21.658Z,100372.66
2022-11-08T18:38:52.442Z,100378.03
2022-11-08T18:41:29.671Z,100377.09
2022-11-08T18:43:58.871Z,100371.00
2022-11-08T18:46:34.890Z,100379.75
2022-11-08T18:49:05.229Z,100381.50
2022-11-08T18:51:32.315Z,100384.16
2022-11-08T18:53:59.417Z,100380.59
2022-11-08T18:56:26.469Z,100380.59
2022-11-08T18:58:54.333Z,100379.56
2022-11-08T19:01:21.445Z,100392.75
2022-11-08T19:03:48.591Z,100390.94
2022-11-08T19:06:15.641Z,100394.44
2022-11-08T19:08:42.689Z,100390.81
2022-11-08T19:11:12.216Z,100392.53
2022-11-08T19:13:41.303Z,100389.16
2022-11-08T19:16:15.326Z,100387.47
2022-11-08T19:18:44.507Z,100390.09
2022-11-08T19:21:24.691Z,100395.41
2022-11-08T19:23:56.270Z,100386.66
2022-11-08T19:26:26.336Z,100396.31
2022-11-08T19:28:57.687Z,100383.22
2022-11-08T19:31:26.035Z,100391.16
2022-11-08T19:33:54.733Z,100389.31
2022-11-08T19:36:25.818Z,100387.38
2022-11-08T19:38:54.938Z,100385.75
2022-11-08T19:41:25.892Z,100388.22
2022-11-08T19:43:53.300Z,100381.06
2022-11-08T19:46:28.974Z,100386.84
2022-11-08T19:48:57.281Z,100394.44
2022-11-08T19:51:27.822Z,100390.72
2022-11-08T19:53:59.767Z,100388.66
2022-11-08T19:56:50.007Z,100388.56
2022-11-08T19:59:15.069Z,100388.41
2022-11-08T20:01:42.326Z,100393.63
2022-11-08T20:04:12.017Z,100384.81
2022-11-08T20:06:39.945Z,100396.97
2022-11-08T20:09:09.424Z,100390.84
2022-11-08T20:11:40.673Z,100392.56
2022-11-08T20:14:10.753Z,100386.53
2022-11-08T20:16:41.849Z,100393.50
2022-11-08T20:19:16.375Z,100392.56
2022-11-08T20:21:46.184Z,100393.41
2022-11-08T20:24:14.574Z,100396.66
2022-11-08T20:26:47.613Z,100400.75
2022-11-08T20:29:14.845Z,100403.13
2022-11-08T20:31:42.402Z,100401.25
2022-11-08T20:34:12.737Z,100393.19
2022-11-08T20:36:41.537Z,100399.31
2022-11-08T20:39:11.059Z,100395.59
2022-11-08T20:41:40.926Z,100396.22
2022-11-08T20:44:10.506Z,100389.91
2022-11-08T20:46:38.727Z,100393.19
2022-11-08T20:49:06.353Z,100394.91
2022-11-08T20:51:34.843Z,100394.81
2022-11-08T20:54:02.123Z,100387.66
2022-11-08T20:56:30.298Z,100392.88
2022-11-08T20:58:57.662Z,100396.28
2022-11-08T21:01:28.251Z,100394.44
2022-11-08T21:03:56.473Z,100396.22
2022-11-08T21:06:26.798Z,100397.09
2022-11-08T21:09:12.117Z,100401.38
2022-11-08T21:11:45.125Z,100397.88
2022-11-08T21:14:12.307Z,100394.44
2022-11-08T21:17:06.621Z,100395.28
2022-11-08T21:19:27.026Z,100406.91
2022-11-08T21:22:14.001Z,100401.69
2022-11-08T21:24:46.022Z,100402.66
2022-11-08T21:27:15.106Z,100412.50
2022-11-08T21:29:42.145Z,100417.94
2022-11-08T21:32:09.394Z,100414.59
2022-11-08T21:34:36.590Z,100415.69
2022-11-08T21:37:12.601Z,100425.56
2022-11-08T21:39:39.743Z,100419.72
2022-11-08T21:42:06.755Z,100425.22
2022-11-08T21:44:33.811Z,100427.28
2022-11-08T21:47:00.830Z,100433.50
2022-11-08T21:49:27.958Z,100433.59
2022-11-08T21:51:54.926Z,100441.63
2022-11-08T21:54:22.157Z,100446.13
2022-11-08T21:56:49.264Z,100443.63
2022-11-08T21:59:16.233Z,100439.41
2022-11-08T22:01:43.335Z,100441.34
2022-11-08T22:04:10.345Z,100436.13
2022-11-08T22:06:37.445Z,100433.63
2022-11-08T22:09:04.559Z,100431.03
2022-11-08T22:11:31.620Z,100433.81
2022-11-08T22:13:58.643Z,100441.94
2022-11-08T22:16:25.689Z,100441.13
2022-11-08T22:19:08.241Z,100433.28
2022-11-08T22:21:40.014Z,100438.56
2022-11-08T22:24:20.445Z,100439.41
2022-11-08T22:26:49.585Z,100436.78
2022-11-08T22:29:18.137Z,100437.78
2022-11-08T22:31:45.360Z,100441.44
2022-11-08T22:34:12.594Z,100437.06
2022-11-08T22:36:45.309Z,100438.03
2022-11-08T22:39:19.970Z,100442.63
2022-11-08T22:41:49.961Z,100437.63
2022-11-08T22:44:18.137Z,100434.19
2022-11-08T22:46:47.611Z,100436.03
2022-11-08T22:49:15.758Z,100441.50
2022-11-08T22:51:44.460Z,100446.78
2022-11-08T22:54:12.262Z,100442.47
2022-11-08T22:56:40.295Z,100440.84
2022-11-08T22:59:07.955Z,100433.91
2022-11-08T23:01:35.536Z,100438.47
2022-11-08T23:04:02.964Z,100434.16
2022-11-08T23:06:30.186Z,100436.81
2022-11-08T23:08:57.459Z,100436.75
2022-11-08T23:11:43.315Z,100438.47
2022-11-08T23:14:35.468Z,100434.13
2022-11-08T23:17:04.246Z,100431.47
2022-11-08T23:19:50.475Z,100435.03
2022-11-08T23:22:36.771Z,100431.47
2022-11-08T23:25:04.622Z,100429.53
2022-11-08T23:27:51.551Z,100430.25
2022-11-08T23:30:37.903Z,100429.25
2022-11-08T23:33:06.898Z,100432.69
2022-11-08T23:35:34.603Z,100435.28
2022-11-08T23:38:01.804Z,100431.75
2022-11-08T23:40:47.474Z,100436.22
2022-11-08T23:43:36.857Z,100424.69
2022-11-08T23:46:10.488Z,100430.00
2022-11-08T23:48:40.120Z,100431.75
2022-11-08T23:51:08.403Z,100436.13
2022-11-08T23:53:37.157Z,100429.13
2022-11-08T23:56:05.064Z,100430.97
2022-11-08T23:58:33.941Z,100440.75
